Terminal Aerodrome Forecast
Issued by NWS

Current Version | Previous Version | Text Only | Print | Product List | Glossary On
Versions: 1 2 3 4 5 6 7 8 9 10 11 12 13
813
FTUS44 KEPZ 271138
TAFDMN
TAF
KDMN 271138Z 2712/2812 07008KT P6SM VCSH BKN100 BKN200
     FM271400 17007KT P6SM SCT100 SCT250
     FM272200 09009KT P6SM VCTS BKN090CB BKN250
     FM280600 06005KT P6SM BKN120=

USA.gov is the U.S. government's official web portal to all federal, state and local government web resources and services.